sensor_id;sensor_type;location;lat;lon;timestamp;P1;durP1;ratioP1;P2;durP2;ratioP2
11006;SDS011;8186;57.652;11.968;2023-04-06T00:00:31;2.50;;;1.47;;
11006;SDS011;8186;57.652;11.968;2023-04-06T00:03:00;1.50;;;1.30;;
11006;SDS011;8186;57.652;11.968;2023-04-06T00:05:26;2.17;;;1.33;;
11006;SDS011;8186;57.652;11.968;2023-04-06T00:07:55;1.70;;;1.10;;
11006;SDS011;8186;57.652;11.968;2023-04-06T00:10:23;3.83;;;1.40;;
11006;SDS011;8186;57.652;11.968;2023-04-06T00:12:50;2.40;;;1.57;;
11006;SDS011;8186;57.652;11.968;2023-04-06T00:15:17;1.17;;;0.97;;
11006;SDS011;8186;57.652;11.968;2023-04-06T00:17:46;1.30;;;1.17;;
11006;SDS011;8186;57.652;11.968;2023-04-06T00:20:14;2.93;;;1.00;;
11006;SDS011;8186;57.652;11.968;2023-04-06T00:22:41;1.30;;;1.10;;
11006;SDS011;8186;57.652;11.968;2023-04-06T00:25:08;2.60;;;1.37;;
11006;SDS011;8186;57.652;11.968;2023-04-06T00:27:36;3.37;;;1.23;;
11006;SDS011;8186;57.652;11.968;2023-04-06T00:30:03;1.73;;;1.20;;
11006;SDS011;8186;57.652;11.968;2023-04-06T00:32:31;1.50;;;1.00;;
11006;SDS011;8186;57.652;11.968;2023-04-06T00:34:58;1.63;;;0.97;;
11006;SDS011;8186;57.652;11.968;2023-04-06T00:37:26;2.70;;;1.20;;
11006;SDS011;8186;57.652;11.968;2023-04-06T00:39:55;2.40;;;1.10;;
11006;SDS011;8186;57.652;11.968;2023-04-06T00:42:22;1.73;;;1.37;;
11006;SDS011;8186;57.652;11.968;2023-04-06T00:44:51;3.00;;;1.27;;
11006;SDS011;8186;57.652;11.968;2023-04-06T00:47:19;2.73;;;1.57;;
11006;SDS011;8186;57.652;11.968;2023-04-06T00:49:46;1.23;;;0.80;;
11006;SDS011;8186;57.652;11.968;2023-04-06T00:52:13;1.43;;;1.30;;
11006;SDS011;8186;57.652;11.968;2023-04-06T00:54:41;1.70;;;1.10;;
11006;SDS011;8186;57.652;11.968;2023-04-06T00:57:08;1.33;;;1.00;;
11006;SDS011;8186;57.652;11.968;2023-04-06T00:59:35;1.77;;;1.20;;
11006;SDS011;8186;57.652;11.968;2023-04-06T01:02:01;1.90;;;1.10;;
11006;SDS011;8186;57.652;11.968;2023-04-06T01:04:28;1.17;;;1.00;;
11006;SDS011;8186;57.652;11.968;2023-04-06T01:06:55;1.47;;;0.97;;
11006;SDS011;8186;57.652;11.968;2023-04-06T01:09:22;1.10;;;1.00;;
11006;SDS011;8186;57.652;11.968;2023-04-06T01:11:50;1.17;;;1.07;;
11006;SDS011;8186;57.652;11.968;2023-04-06T01:14:17;1.63;;;1.30;;
11006;SDS011;8186;57.652;11.968;2023-04-06T01:16:44;1.23;;;0.90;;
11006;SDS011;8186;57.652;11.968;2023-04-06T01:19:11;2.23;;;1.20;;
11006;SDS011;8186;57.652;11.968;2023-04-06T01:21:38;1.03;;;0.90;;
11006;SDS011;8186;57.652;11.968;2023-04-06T01:24:08;2.70;;;1.00;;
11006;SDS011;8186;57.652;11.968;2023-04-06T01:26:35;2.77;;;0.90;;
11006;SDS011;8186;57.652;11.968;2023-04-06T01:29:03;1.13;;;0.90;;
11006;SDS011;8186;57.652;11.968;2023-04-06T01:31:30;1.50;;;0.90;;
11006;SDS011;8186;57.652;11.968;2023-04-06T01:33:57;1.87;;;1.00;;
11006;SDS011;8186;57.652;11.968;2023-04-06T01:36:23;1.03;;;1.00;;
11006;SDS011;8186;57.652;11.968;2023-04-06T01:38:50;1.47;;;1.00;;
11006;SDS011;8186;57.652;11.968;2023-04-06T01:41:18;1.13;;;0.97;;
11006;SDS011;8186;57.652;11.968;2023-04-06T01:43:46;1.17;;;0.97;;
11006;SDS011;8186;57.652;11.968;2023-04-06T01:46:14;1.37;;;0.83;;
11006;SDS011;8186;57.652;11.968;2023-04-06T01:48:41;2.40;;;1.00;;
11006;SDS011;8186;57.652;11.968;2023-04-06T01:51:08;1.77;;;1.10;;
11006;SDS011;8186;57.652;11.968;2023-04-06T01:53:34;1.77;;;0.90;;
11006;SDS011;8186;57.652;11.968;2023-04-06T01:56:01;1.43;;;1.10;;
11006;SDS011;8186;57.652;11.968;2023-04-06T01:58:29;1.20;;;1.10;;
11006;SDS011;8186;57.652;11.968;2023-04-06T02:00:56;1.17;;;0.87;;
11006;SDS011;8186;57.652;11.968;2023-04-06T02:03:23;1.63;;;1.00;;
11006;SDS011;8186;57.652;11.968;2023-04-06T02:05:50;1.23;;;1.00;;
11006;SDS011;8186;57.652;11.968;2023-04-06T02:08:17;1.23;;;1.00;;
11006;SDS011;8186;57.652;11.968;2023-04-06T02:10:43;1.93;;;1.10;;
11006;SDS011;8186;57.652;11.968;2023-04-06T02:13:10;1.97;;;1.20;;
11006;SDS011;8186;57.652;11.968;2023-04-06T02:15:38;1.10;;;1.00;;
11006;SDS011;8186;57.652;11.968;2023-04-06T02:18:05;1.27;;;0.90;;
11006;SDS011;8186;57.652;11.968;2023-04-06T02:20:32;1.10;;;0.93;;
11006;SDS011;8186;57.652;11.968;2023-04-06T02:22:59;1.27;;;1.00;;
11006;SDS011;8186;57.652;11.968;2023-04-06T02:25:26;1.93;;;1.00;;
11006;SDS011;8186;57.652;11.968;2023-04-06T02:27:53;1.23;;;1.07;;
11006;SDS011;8186;57.652;11.968;2023-04-06T02:30:20;1.30;;;1.20;;
11006;SDS011;8186;57.652;11.968;2023-04-06T02:32:48;1.87;;;0.90;;
11006;SDS011;8186;57.652;11.968;2023-04-06T02:35:15;2.40;;;1.07;;
11006;SDS011;8186;57.652;11.968;2023-04-06T02:37:42;1.20;;;1.10;;
11006;SDS011;8186;57.652;11.968;2023-04-06T02:40:09;1.13;;;1.00;;
11006;SDS011;8186;57.652;11.968;2023-04-06T02:42:36;1.43;;;1.10;;
11006;SDS011;8186;57.652;11.968;2023-04-06T02:45:03;1.53;;;1.03;;
11006;SDS011;8186;57.652;11.968;2023-04-06T02:47:31;1.67;;;1.20;;
11006;SDS011;8186;57.652;11.968;2023-04-06T02:49:59;1.20;;;1.10;;
11006;SDS011;8186;57.652;11.968;2023-04-06T02:52:26;0.80;;;0.80;;
11006;SDS011;8186;57.652;11.968;2023-04-06T02:54:53;1.23;;;0.90;;
11006;SDS011;8186;57.652;11.968;2023-04-06T02:57:20;1.30;;;1.13;;
11006;SDS011;8186;57.652;11.968;2023-04-06T02:59:47;2.43;;;1.37;;
11006;SDS011;8186;57.652;11.968;2023-04-06T03:02:14;1.57;;;0.97;;
11006;SDS011;8186;57.652;11.968;2023-04-06T03:04:41;0.80;;;0.80;;
11006;SDS011;8186;57.652;11.968;2023-04-06T03:07:09;2.20;;;1.20;;
11006;SDS011;8186;57.652;11.968;2023-04-06T03:09:36;1.20;;;1.10;;
11006;SDS011;8186;57.652;11.968;2023-04-06T03:12:03;3.23;;;1.10;;
11006;SDS011;8186;57.652;11.968;2023-04-06T03:14:30;1.10;;;1.00;;
11006;SDS011;8186;57.652;11.968;2023-04-06T03:16:57;1.47;;;1.00;;
11006;SDS011;8186;57.652;11.968;2023-04-06T03:19:24;1.33;;;0.97;;
11006;SDS011;8186;57.652;11.968;2023-04-06T03:21:51;1.43;;;1.10;;
11006;SDS011;8186;57.652;11.968;2023-04-06T03:24:19;1.77;;;1.07;;
11006;SDS011;8186;57.652;11.968;2023-04-06T03:26:46;2.00;;;1.30;;
11006;SDS011;8186;57.652;11.968;2023-04-06T03:29:13;1.53;;;1.20;;
11006;SDS011;8186;57.652;11.968;2023-04-06T03:31:40;1.53;;;1.10;;
11006;SDS011;8186;57.652;11.968;2023-04-06T03:34:06;1.37;;;1.10;;
11006;SDS011;8186;57.652;11.968;2023-04-06T03:36:33;1.50;;;1.40;;
11006;SDS011;8186;57.652;11.968;2023-04-06T03:39:00;2.63;;;1.10;;
11006;SDS011;8186;57.652;11.968;2023-04-06T03:41:28;1.57;;;1.17;;
11006;SDS011;8186;57.652;11.968;2023-04-06T03:43:55;2.63;;;1.30;;
11006;SDS011;8186;57.652;11.968;2023-04-06T03:46:22;2.57;;;1.30;;
11006;SDS011;8186;57.652;11.968;2023-04-06T03:48:48;1.50;;;1.20;;
11006;SDS011;8186;57.652;11.968;2023-04-06T03:51:16;2.20;;;1.33;;
11006;SDS011;8186;57.652;11.968;2023-04-06T03:53:42;4.17;;;1.47;;
11006;SDS011;8186;57.652;11.968;2023-04-06T03:56:09;2.83;;;1.27;;
11006;SDS011;8186;57.652;11.968;2023-04-06T03:58:37;2.27;;;1.40;;
11006;SDS011;8186;57.652;11.968;2023-04-06T04:01:04;1.93;;;1.47;;
11006;SDS011;8186;57.652;11.968;2023-04-06T04:03:31;1.40;;;1.30;;
11006;SDS011;8186;57.652;11.968;2023-04-06T04:05:58;3.23;;;1.60;;
11006;SDS011;8186;57.652;11.968;2023-04-06T04:08:24;1.83;;;1.03;;
11006;SDS011;8186;57.652;11.968;2023-04-06T04:10:51;3.00;;;1.40;;
11006;SDS011;8186;57.652;11.968;2023-04-06T04:13:18;2.03;;;1.30;;
11006;SDS011;8186;57.652;11.968;2023-04-06T04:15:47;1.87;;;1.30;;
11006;SDS011;8186;57.652;11.968;2023-04-06T04:18:13;1.57;;;1.10;;
11006;SDS011;8186;57.652;11.968;2023-04-06T04:20:40;4.40;;;1.60;;
11006;SDS011;8186;57.652;11.968;2023-04-06T04:23:07;1.70;;;1.60;;
11006;SDS011;8186;57.652;11.968;2023-04-06T04:25:34;1.60;;;1.27;;
11006;SDS011;8186;57.652;11.968;2023-04-06T04:28:01;1.67;;;1.40;;
11006;SDS011;8186;57.652;11.968;2023-04-06T04:30:28;2.83;;;2.10;;
11006;SDS011;8186;57.652;11.968;2023-04-06T04:32:56;1.33;;;1.17;;
11006;SDS011;8186;57.652;11.968;2023-04-06T04:35:23;1.37;;;1.27;;
11006;SDS011;8186;57.652;11.968;2023-04-06T04:37:50;3.00;;;1.60;;
11006;SDS011;8186;57.652;11.968;2023-04-06T04:40:17;2.20;;;1.50;;
11006;SDS011;8186;57.652;11.968;2023-04-06T04:42:44;2.60;;;1.33;;
11006;SDS011;8186;57.652;11.968;2023-04-06T04:45:11;2.63;;;1.70;;
11006;SDS011;8186;57.652;11.968;2023-04-06T04:47:38;2.67;;;1.30;;
11006;SDS011;8186;57.652;11.968;2023-04-06T04:50:07;1.50;;;1.40;;
11006;SDS011;8186;57.652;11.968;2023-04-06T04:52:34;1.73;;;1.50;;
11006;SDS011;8186;57.652;11.968;2023-04-06T04:55:01;1.70;;;1.30;;
11006;SDS011;8186;57.652;11.968;2023-04-06T04:57:28;2.93;;;1.57;;
11006;SDS011;8186;57.652;11.968;2023-04-06T04:59:55;2.33;;;1.43;;
11006;SDS011;8186;57.652;11.968;2023-04-06T05:02:22;1.93;;;1.40;;
11006;SDS011;8186;57.652;11.968;2023-04-06T05:04:49;1.50;;;1.30;;
11006;SDS011;8186;57.652;11.968;2023-04-06T05:07:17;2.00;;;1.60;;
11006;SDS011;8186;57.652;11.968;2023-04-06T05:09:45;2.10;;;1.80;;
11006;SDS011;8186;57.652;11.968;2023-04-06T05:12:12;1.87;;;1.40;;
11006;SDS011;8186;57.652;11.968;2023-04-06T05:14:39;1.80;;;1.60;;
11006;SDS011;8186;57.652;11.968;2023-04-06T05:17:06;2.77;;;1.67;;
11006;SDS011;8186;57.652;11.968;2023-04-06T05:19:33;2.27;;;1.67;;
11006;SDS011;8186;57.652;11.968;2023-04-06T05:22:00;3.73;;;1.67;;
11006;SDS011;8186;57.652;11.968;2023-04-06T05:24:28;2.40;;;1.40;;
11006;SDS011;8186;57.652;11.968;2023-04-06T05:26:55;1.97;;;1.57;;
11006;SDS011;8186;57.652;11.968;2023-04-06T05:29:22;1.60;;;1.37;;
11006;SDS011;8186;57.652;11.968;2023-04-06T05:31:50;2.80;;;1.80;;
11006;SDS011;8186;57.652;11.968;2023-04-06T05:34:17;2.93;;;1.53;;
11006;SDS011;8186;57.652;11.968;2023-04-06T05:36:44;3.17;;;1.73;;
11006;SDS011;8186;57.652;11.968;2023-04-06T05:39:10;2.10;;;1.57;;
11006;SDS011;8186;57.652;11.968;2023-04-06T05:41:39;2.77;;;1.67;;
11006;SDS011;8186;57.652;11.968;2023-04-06T05:44:06;2.27;;;1.33;;
11006;SDS011;8186;57.652;11.968;2023-04-06T05:46:33;2.23;;;1.50;;
11006;SDS011;8186;57.652;11.968;2023-04-06T05:49:00;2.03;;;1.77;;
11006;SDS011;8186;57.652;11.968;2023-04-06T05:51:26;2.47;;;1.77;;
11006;SDS011;8186;57.652;11.968;2023-04-06T05:53:53;1.60;;;1.50;;
11006;SDS011;8186;57.652;11.968;2023-04-06T05:56:20;2.60;;;1.80;;
11006;SDS011;8186;57.652;11.968;2023-04-06T05:58:48;2.00;;;1.50;;
11006;SDS011;8186;57.652;11.968;2023-04-06T06:01:15;2.43;;;1.50;;
11006;SDS011;8186;57.652;11.968;2023-04-06T06:03:42;1.70;;;1.50;;
11006;SDS011;8186;57.652;11.968;2023-04-06T06:06:08;2.40;;;1.57;;
11006;SDS011;8186;57.652;11.968;2023-04-06T06:08:35;2.70;;;1.70;;
11006;SDS011;8186;57.652;11.968;2023-04-06T06:11:02;2.23;;;1.93;;
11006;SDS011;8186;57.652;11.968;2023-04-06T06:13:29;1.53;;;1.43;;
11006;SDS011;8186;57.652;11.968;2023-04-06T06:15:57;1.77;;;1.60;;
11006;SDS011;8186;57.652;11.968;2023-04-06T06:18:24;3.43;;;1.40;;
11006;SDS011;8186;57.652;11.968;2023-04-06T06:20:51;1.50;;;1.40;;
11006;SDS011;8186;57.652;11.968;2023-04-06T06:23:18;4.20;;;1.53;;
11006;SDS011;8186;57.652;11.968;2023-04-06T06:25:45;2.00;;;1.63;;
11006;SDS011;8186;57.652;11.968;2023-04-06T06:28:11;2.57;;;1.47;;
11006;SDS011;8186;57.652;11.968;2023-04-06T06:30:38;2.63;;;1.70;;
11006;SDS011;8186;57.652;11.968;2023-04-06T06:33:06;1.50;;;1.20;;
11006;SDS011;8186;57.652;11.968;2023-04-06T06:35:33;2.47;;;1.30;;
11006;SDS011;8186;57.652;11.968;2023-04-06T06:38:00;2.40;;;1.60;;
11006;SDS011;8186;57.652;11.968;2023-04-06T06:40:27;2.40;;;1.23;;
11006;SDS011;8186;57.652;11.968;2023-04-06T06:42:53;2.20;;;1.50;;
11006;SDS011;8186;57.652;11.968;2023-04-06T06:45:20;2.83;;;1.50;;
11006;SDS011;8186;57.652;11.968;2023-04-06T06:47:47;1.50;;;1.40;;
11006;SDS011;8186;57.652;11.968;2023-04-06T06:50:16;2.77;;;1.57;;
11006;SDS011;8186;57.652;11.968;2023-04-06T06:52:42;3.37;;;1.30;;
11006;SDS011;8186;57.652;11.968;2023-04-06T06:55:10;2.17;;;1.20;;
11006;SDS011;8186;57.652;11.968;2023-04-06T06:57:37;2.27;;;1.30;;
11006;SDS011;8186;57.652;11.968;2023-04-06T07:00:04;2.53;;;1.40;;
11006;SDS011;8186;57.652;11.968;2023-04-06T07:02:33;2.00;;;1.60;;
11006;SDS011;8186;57.652;11.968;2023-04-06T07:05:01;2.40;;;1.60;;
11006;SDS011;8186;57.652;11.968;2023-04-06T07:07:30;2.33;;;1.53;;
11006;SDS011;8186;57.652;11.968;2023-04-06T07:09:58;1.83;;;1.53;;
11006;SDS011;8186;57.652;11.968;2023-04-06T07:12:25;2.67;;;1.70;;
11006;SDS011;8186;57.652;11.968;2023-04-06T07:14:52;1.63;;;1.53;;
11006;SDS011;8186;57.652;11.968;2023-04-06T07:17:18;2.03;;;1.23;;
11006;SDS011;8186;57.652;11.968;2023-04-06T07:19:45;2.77;;;1.50;;
11006;SDS011;8186;57.652;11.968;2023-04-06T07:22:12;2.43;;;1.33;;
11006;SDS011;8186;57.652;11.968;2023-04-06T07:24:40;2.03;;;1.60;;
11006;SDS011;8186;57.652;11.968;2023-04-06T07:27:07;1.60;;;1.50;;
11006;SDS011;8186;57.652;11.968;2023-04-06T07:29:34;2.83;;;1.40;;
11006;SDS011;8186;57.652;11.968;2023-04-06T07:32:01;2.13;;;1.20;;
11006;SDS011;8186;57.652;11.968;2023-04-06T07:34:28;1.73;;;1.50;;
11006;SDS011;8186;57.652;11.968;2023-04-06T07:36:55;2.63;;;1.70;;
11006;SDS011;8186;57.652;11.968;2023-04-06T07:39:23;2.07;;;1.60;;
11006;SDS011;8186;57.652;11.968;2023-04-06T07:41:52;1.70;;;1.60;;
11006;SDS011;8186;57.652;11.968;2023-04-06T07:44:19;1.90;;;1.60;;
11006;SDS011;8186;57.652;11.968;2023-04-06T07:46:46;1.63;;;1.33;;
11006;SDS011;8186;57.652;11.968;2023-04-06T07:49:13;1.40;;;1.30;;
11006;SDS011;8186;57.652;11.968;2023-04-06T07:51:40;3.20;;;1.20;;
11006;SDS011;8186;57.652;11.968;2023-04-06T07:54:07;2.33;;;1.50;;
11006;SDS011;8186;57.652;11.968;2023-04-06T07:56:34;1.50;;;1.40;;
11006;SDS011;8186;57.652;11.968;2023-04-06T07:59:02;2.63;;;1.50;;
11006;SDS011;8186;57.652;11.968;2023-04-06T08:01:29;1.90;;;1.60;;
11006;SDS011;8186;57.652;11.968;2023-04-06T08:03:56;2.03;;;1.80;;
11006;SDS011;8186;57.652;11.968;2023-04-06T08:06:23;4.47;;;1.67;;
11006;SDS011;8186;57.652;11.968;2023-04-06T08:08:50;2.73;;;1.53;;
11006;SDS011;8186;57.652;11.968;2023-04-06T08:11:17;2.73;;;2.10;;
11006;SDS011;8186;57.652;11.968;2023-04-06T08:13:44;2.93;;;1.60;;
11006;SDS011;8186;57.652;11.968;2023-04-06T08:16:12;1.57;;;1.47;;
11006;SDS011;8186;57.652;11.968;2023-04-06T08:18:39;3.43;;;1.63;;
11006;SDS011;8186;57.652;11.968;2023-04-06T08:21:06;3.07;;;1.47;;
11006;SDS011;8186;57.652;11.968;2023-04-06T08:23:32;2.17;;;1.57;;
11006;SDS011;8186;57.652;11.968;2023-04-06T08:25:59;3.07;;;1.40;;
11006;SDS011;8186;57.652;11.968;2023-04-06T08:28:26;1.60;;;1.50;;
11006;SDS011;8186;57.652;11.968;2023-04-06T08:30:53;2.60;;;1.60;;
11006;SDS011;8186;57.652;11.968;2023-04-06T08:33:21;1.47;;;1.33;;
11006;SDS011;8186;57.652;11.968;2023-04-06T08:35:49;2.50;;;1.70;;
11006;SDS011;8186;57.652;11.968;2023-04-06T08:38:16;1.87;;;1.33;;
11006;SDS011;8186;57.652;11.968;2023-04-06T08:40:43;6.40;;;2.07;;
11006;SDS011;8186;57.652;11.968;2023-04-06T08:43:13;3.10;;;1.30;;
11006;SDS011;8186;57.652;11.968;2023-04-06T08:45:41;3.23;;;2.00;;
11006;SDS011;8186;57.652;11.968;2023-04-06T08:48:09;3.40;;;1.50;;
11006;SDS011;8186;57.652;11.968;2023-04-06T08:50:38;2.73;;;1.83;;
11006;SDS011;8186;57.652;11.968;2023-04-06T08:53:06;4.87;;;1.80;;
11006;SDS011;8186;57.652;11.968;2023-04-06T08:55:34;1.97;;;1.40;;
11006;SDS011;8186;57.652;11.968;2023-04-06T08:58:01;3.00;;;1.87;;
11006;SDS011;8186;57.652;11.968;2023-04-06T09:00:28;2.43;;;1.93;;
11006;SDS011;8186;57.652;11.968;2023-04-06T09:02:55;2.60;;;2.10;;
11006;SDS011;8186;57.652;11.968;2023-04-06T09:05:23;2.03;;;1.77;;
11006;SDS011;8186;57.652;11.968;2023-04-06T09:07:53;2.43;;;2.20;;
11006;SDS011;8186;57.652;11.968;2023-04-06T09:10:20;3.83;;;2.30;;
11006;SDS011;8186;57.652;11.968;2023-04-06T09:12:48;4.40;;;2.13;;
11006;SDS011;8186;57.652;11.968;2023-04-06T09:15:19;3.90;;;2.43;;
11006;SDS011;8186;57.652;11.968;2023-04-06T09:17:46;4.37;;;2.47;;
11006;SDS011;8186;57.652;11.968;2023-04-06T09:20:13;4.50;;;2.53;;
11006;SDS011;8186;57.652;11.968;2023-04-06T09:22:42;5.60;;;2.23;;
11006;SDS011;8186;57.652;11.968;2023-04-06T09:25:10;5.13;;;2.83;;
11006;SDS011;8186;57.652;11.968;2023-04-06T09:27:46;2.50;;;2.27;;
11006;SDS011;8186;57.652;11.968;2023-04-06T09:30:13;4.17;;;2.60;;
11006;SDS011;8186;57.652;11.968;2023-04-06T09:32:48;3.33;;;2.53;;
11006;SDS011;8186;57.652;11.968;2023-04-06T09:35:16;5.27;;;2.70;;
11006;SDS011;8186;57.652;11.968;2023-04-06T09:37:45;4.27;;;3.03;;
11006;SDS011;8186;57.652;11.968;2023-04-06T09:40:14;3.30;;;2.90;;
11006;SDS011;8186;57.652;11.968;2023-04-06T09:42:42;5.67;;;2.80;;
11006;SDS011;8186;57.652;11.968;2023-04-06T09:45:12;4.73;;;3.37;;
11006;SDS011;8186;57.652;11.968;2023-04-06T09:47:39;3.77;;;3.20;;
11006;SDS011;8186;57.652;11.968;2023-04-06T09:50:07;5.03;;;3.30;;
11006;SDS011;8186;57.652;11.968;2023-04-06T09:52:37;4.90;;;3.57;;
11006;SDS011;8186;57.652;11.968;2023-04-06T09:55:04;4.20;;;3.60;;
11006;SDS011;8186;57.652;11.968;2023-04-06T09:57:37;5.33;;;3.60;;
11006;SDS011;8186;57.652;11.968;2023-04-06T10:00:07;5.10;;;3.33;;
11006;SDS011;8186;57.652;11.968;2023-04-06T10:02:39;4.30;;;3.33;;
11006;SDS011;8186;57.652;11.968;2023-04-06T10:05:13;4.17;;;3.40;;
11006;SDS011;8186;57.652;11.968;2023-04-06T10:07:44;4.63;;;4.00;;
11006;SDS011;8186;57.652;11.968;2023-04-06T10:10:11;6.10;;;3.50;;
11006;SDS011;8186;57.652;11.968;2023-04-06T10:12:40;4.30;;;3.33;;
11006;SDS011;8186;57.652;11.968;2023-04-06T10:15:08;4.87;;;3.90;;
11006;SDS011;8186;57.652;11.968;2023-04-06T10:17:36;7.33;;;3.80;;
11006;SDS011;8186;57.652;11.968;2023-04-06T10:20:04;5.73;;;3.70;;
11006;SDS011;8186;57.652;11.968;2023-04-06T10:22:36;5.10;;;4.17;;
11006;SDS011;8186;57.652;11.968;2023-04-06T10:25:07;6.20;;;4.20;;
11006;SDS011;8186;57.652;11.968;2023-04-06T10:27:34;5.40;;;4.70;;
11006;SDS011;8186;57.652;11.968;2023-04-06T10:30:03;6.60;;;5.03;;
11006;SDS011;8186;57.652;11.968;2023-04-06T10:32:31;8.60;;;5.40;;
11006;SDS011;8186;57.652;11.968;2023-04-06T10:35:04;8.10;;;5.23;;
11006;SDS011;8186;57.652;11.968;2023-04-06T10:37:45;6.70;;;5.50;;
11006;SDS011;8186;57.652;11.968;2023-04-06T10:40:17;10.17;;;6.33;;
11006;SDS011;8186;57.652;11.968;2023-04-06T10:42:45;8.77;;;6.80;;
11006;SDS011;8186;57.652;11.968;2023-04-06T10:45:20;10.03;;;7.87;;
11006;SDS011;8186;57.652;11.968;2023-04-06T10:47:47;10.27;;;7.23;;
11006;SDS011;8186;57.652;11.968;2023-04-06T10:50:15;8.80;;;7.30;;
11006;SDS011;8186;57.652;11.968;2023-04-06T10:52:43;10.67;;;7.70;;
11006;SDS011;8186;57.652;11.968;2023-04-06T10:55:11;8.43;;;6.70;;
11006;SDS011;8186;57.652;11.968;2023-04-06T10:57:38;9.13;;;7.43;;
11006;SDS011;8186;57.652;11.968;2023-04-06T11:00:06;9.10;;;7.33;;
11006;SDS011;8186;57.652;11.968;2023-04-06T11:02:35;11.37;;;7.60;;
11006;SDS011;8186;57.652;11.968;2023-04-06T11:05:03;9.30;;;7.13;;
11006;SDS011;8186;57.652;11.968;2023-04-06T11:07:30;8.77;;;6.37;;
11006;SDS011;8186;57.652;11.968;2023-04-06T11:09:57;8.83;;;6.57;;
11006;SDS011;8186;57.652;11.968;2023-04-06T11:12:24;8.70;;;5.77;;
11006;SDS011;8186;57.652;11.968;2023-04-06T11:14:52;6.77;;;5.40;;
11006;SDS011;8186;57.652;11.968;2023-04-06T11:17:25;7.50;;;5.50;;
11006;SDS011;8186;57.652;11.968;2023-04-06T11:19:54;9.87;;;5.63;;
11006;SDS011;8186;57.652;11.968;2023-04-06T11:22:20;6.83;;;5.20;;
11006;SDS011;8186;57.652;11.968;2023-04-06T11:24:47;8.13;;;4.63;;
11006;SDS011;8186;57.652;11.968;2023-04-06T11:27:15;7.27;;;5.13;;
11006;SDS011;8186;57.652;11.968;2023-04-06T11:29:42;6.03;;;4.77;;
11006;SDS011;8186;57.652;11.968;2023-04-06T11:32:11;5.80;;;4.80;;
11006;SDS011;8186;57.652;11.968;2023-04-06T11:34:38;6.57;;;4.77;;
11006;SDS011;8186;57.652;11.968;2023-04-06T11:37:08;8.97;;;4.80;;
11006;SDS011;8186;57.652;11.968;2023-04-06T11:39:37;5.90;;;4.47;;
11006;SDS011;8186;57.652;11.968;2023-04-06T11:42:05;8.50;;;4.93;;
11006;SDS011;8186;57.652;11.968;2023-04-06T11:44:33;5.60;;;4.03;;
11006;SDS011;8186;57.652;11.968;2023-04-06T11:47:00;5.07;;;3.77;;
11006;SDS011;8186;57.652;11.968;2023-04-06T11:49:27;7.67;;;3.70;;
11006;SDS011;8186;57.652;11.968;2023-04-06T11:51:54;5.77;;;4.10;;
11006;SDS011;8186;57.652;11.968;2023-04-06T11:54:30;8.13;;;3.63;;
11006;SDS011;8186;57.652;11.968;2023-04-06T11:56:58;7.47;;;2.93;;
11006;SDS011;8186;57.652;11.968;2023-04-06T11:59:25;7.00;;;3.60;;
11006;SDS011;8186;57.652;11.968;2023-04-06T12:01:52;6.33;;;4.00;;
11006;SDS011;8186;57.652;11.968;2023-04-06T12:04:19;5.13;;;3.50;;
11006;SDS011;8186;57.652;11.968;2023-04-06T12:06:46;5.93;;;3.83;;
11006;SDS011;8186;57.652;11.968;2023-04-06T12:09:13;4.77;;;3.50;;
11006;SDS011;8186;57.652;11.968;2023-04-06T12:11:41;5.13;;;3.10;;
11006;SDS011;8186;57.652;11.968;2023-04-06T12:14:08;4.47;;;3.20;;
11006;SDS011;8186;57.652;11.968;2023-04-06T12:16:35;4.67;;;2.70;;
11006;SDS011;8186;57.652;11.968;2023-04-06T12:19:02;6.13;;;3.00;;
11006;SDS011;8186;57.652;11.968;2023-04-06T12:21:29;6.57;;;3.20;;
11006;SDS011;8186;57.652;11.968;2023-04-06T12:23:56;9.20;;;3.43;;
11006;SDS011;8186;57.652;11.968;2023-04-06T12:26:23;5.47;;;3.27;;
11006;SDS011;8186;57.652;11.968;2023-04-06T12:28:52;4.57;;;3.43;;
11006;SDS011;8186;57.652;11.968;2023-04-06T12:31:19;5.53;;;3.50;;
11006;SDS011;8186;57.652;11.968;2023-04-06T12:33:47;5.80;;;3.27;;
11006;SDS011;8186;57.652;11.968;2023-04-06T12:36:15;4.60;;;2.97;;
11006;SDS011;8186;57.652;11.968;2023-04-06T12:38:44;5.23;;;2.83;;
11006;SDS011;8186;57.652;11.968;2023-04-06T12:41:11;4.83;;;3.00;;
11006;SDS011;8186;57.652;11.968;2023-04-06T12:43:38;3.93;;;2.63;;
11006;SDS011;8186;57.652;11.968;2023-04-06T12:46:07;4.70;;;2.63;;
11006;SDS011;8186;57.652;11.968;2023-04-06T12:48:33;3.83;;;2.20;;
11006;SDS011;8186;57.652;11.968;2023-04-06T12:51:02;4.00;;;2.20;;
11006;SDS011;8186;57.652;11.968;2023-04-06T12:53:30;4.27;;;1.80;;
11006;SDS011;8186;57.652;11.968;2023-04-06T12:55:57;3.17;;;1.70;;
11006;SDS011;8186;57.652;11.968;2023-04-06T12:58:25;3.23;;;1.87;;
11006;SDS011;8186;57.652;11.968;2023-04-06T13:00:53;6.13;;;2.13;;
11006;SDS011;8186;57.652;11.968;2023-04-06T13:03:22;3.37;;;2.30;;
11006;SDS011;8186;57.652;11.968;2023-04-06T13:05:49;2.20;;;1.80;;
11006;SDS011;8186;57.652;11.968;2023-04-06T13:08:17;7.67;;;2.33;;
11006;SDS011;8186;57.652;11.968;2023-04-06T13:10:46;3.67;;;1.73;;
11006;SDS011;8186;57.652;11.968;2023-04-06T13:13:14;2.07;;;1.40;;
11006;SDS011;8186;57.652;11.968;2023-04-06T13:15:42;2.77;;;1.83;;
11006;SDS011;8186;57.652;11.968;2023-04-06T13:18:09;1.73;;;1.50;;
11006;SDS011;8186;57.652;11.968;2023-04-06T13:20:38;2.80;;;1.83;;
11006;SDS011;8186;57.652;11.968;2023-04-06T13:23:04;4.10;;;1.70;;
11006;SDS011;8186;57.652;11.968;2023-04-06T13:25:31;2.70;;;1.70;;
11006;SDS011;8186;57.652;11.968;2023-04-06T13:27:58;4.70;;;1.80;;
11006;SDS011;8186;57.652;11.968;2023-04-06T13:30:25;4.70;;;1.70;;
11006;SDS011;8186;57.652;11.968;2023-04-06T13:32:52;1.97;;;1.37;;
11006;SDS011;8186;57.652;11.968;2023-04-06T13:35:19;3.13;;;1.20;;
11006;SDS011;8186;57.652;11.968;2023-04-06T13:37:47;3.13;;;1.70;;
11006;SDS011;8186;57.652;11.968;2023-04-06T13:40:16;2.47;;;1.50;;
11006;SDS011;8186;57.652;11.968;2023-04-06T13:42:44;2.77;;;1.50;;
11006;SDS011;8186;57.652;11.968;2023-04-06T13:45:11;3.40;;;1.83;;
11006;SDS011;8186;57.652;11.968;2023-04-06T13:47:38;2.23;;;1.17;;
11006;SDS011;8186;57.652;11.968;2023-04-06T13:50:06;1.70;;;1.10;;
11006;SDS011;8186;57.652;11.968;2023-04-06T13:52:34;2.33;;;1.60;;
11006;SDS011;8186;57.652;11.968;2023-04-06T13:55:04;1.90;;;1.53;;
11006;SDS011;8186;57.652;11.968;2023-04-06T13:57:31;2.73;;;1.83;;
11006;SDS011;8186;57.652;11.968;2023-04-06T13:59:58;4.27;;;1.70;;
11006;SDS011;8186;57.652;11.968;2023-04-06T14:02:25;3.93;;;1.70;;
11006;SDS011;8186;57.652;11.968;2023-04-06T14:04:52;1.80;;;1.70;;
11006;SDS011;8186;57.652;11.968;2023-04-06T14:07:20;3.37;;;2.00;;
11006;SDS011;8186;57.652;11.968;2023-04-06T14:09:47;3.37;;;1.70;;
11006;SDS011;8186;57.652;11.968;2023-04-06T14:12:15;3.43;;;1.80;;
11006;SDS011;8186;57.652;11.968;2023-04-06T14:14:42;3.43;;;2.00;;
11006;SDS011;8186;57.652;11.968;2023-04-06T14:17:09;2.33;;;2.00;;
11006;SDS011;8186;57.652;11.968;2023-04-06T14:19:36;3.90;;;1.90;;
11006;SDS011;8186;57.652;11.968;2023-04-06T14:22:02;6.60;;;2.23;;
11006;SDS011;8186;57.652;11.968;2023-04-06T14:24:29;5.00;;;2.63;;
11006;SDS011;8186;57.652;11.968;2023-04-06T14:26:57;5.07;;;2.50;;
11006;SDS011;8186;57.652;11.968;2023-04-06T14:29:25;3.67;;;2.57;;
11006;SDS011;8186;57.652;11.968;2023-04-06T14:31:52;7.53;;;2.60;;
11006;SDS011;8186;57.652;11.968;2023-04-06T14:34:24;3.83;;;2.10;;
11006;SDS011;8186;57.652;11.968;2023-04-06T14:36:51;3.67;;;2.67;;
11006;SDS011;8186;57.652;11.968;2023-04-06T14:39:18;3.27;;;2.53;;
11006;SDS011;8186;57.652;11.968;2023-04-06T14:41:45;4.47;;;2.33;;
11006;SDS011;8186;57.652;11.968;2023-04-06T14:44:13;7.50;;;2.57;;
11006;SDS011;8186;57.652;11.968;2023-04-06T14:46:43;4.80;;;2.63;;
11006;SDS011;8186;57.652;11.968;2023-04-06T14:49:10;3.30;;;2.20;;